sensor_id;sensor_type;location;lat;lon;timestamp;P1;durP1;ratioP1;P2;durP2;ratioP2
52494;SDS011;38405;53.212;5.660;2022-09-03T00:00:45;4.43;;;1.50;;
52494;SDS011;38405;53.212;5.660;2022-09-03T00:03:21;3.50;;;1.20;;
52494;SDS011;38405;53.212;5.660;2022-09-03T00:05:55;5.10;;;1.20;;
52494;SDS011;38405;53.212;5.660;2022-09-03T00:09:16;2.05;;;1.15;;
52494;SDS011;38405;53.212;5.660;2022-09-03T00:11:29;4.40;;;1.17;;
52494;SDS011;38405;53.212;5.660;2022-09-03T00:17:08;2.20;;;1.20;;
52494;SDS011;38405;53.212;5.660;2022-09-03T00:19:40;6.75;;;1.40;;
52494;SDS011;38405;53.212;5.660;2022-09-03T00:22:20;1.80;;;1.27;;
52494;SDS011;38405;53.212;5.660;2022-09-03T00:24:52;2.58;;;1.23;;
52494;SDS011;38405;53.212;5.660;2022-09-03T00:27:21;2.35;;;1.10;;
52494;SDS011;38405;53.212;5.660;2022-09-03T00:29:56;7.35;;;1.30;;
52494;SDS011;38405;53.212;5.660;2022-09-03T00:32:51;4.55;;;1.42;;
52494;SDS011;38405;53.212;5.660;2022-09-03T00:35:33;3.03;;;1.42;;
52494;SDS011;38405;53.212;5.660;2022-09-03T00:38:12;3.85;;;1.13;;
52494;SDS011;38405;53.212;5.660;2022-09-03T00:43:52;2.42;;;1.23;;
52494;SDS011;38405;53.212;5.660;2022-09-03T00:46:53;6.75;;;1.10;;
52494;SDS011;38405;53.212;5.660;2022-09-03T00:54:42;5.30;;;1.50;;
52494;SDS011;38405;53.212;5.660;2022-09-03T00:57:22;1.15;;;1.00;;
52494;SDS011;38405;53.212;5.660;2022-09-03T01:00:06;6.50;;;1.38;;
52494;SDS011;38405;53.212;5.660;2022-09-03T01:08:09;4.72;;;1.27;;
52494;SDS011;38405;53.212;5.660;2022-09-03T01:13:45;6.13;;;1.15;;
52494;SDS011;38405;53.212;5.660;2022-09-03T01:30:52;3.25;;;1.20;;
52494;SDS011;38405;53.212;5.660;2022-09-03T01:41:05;2.15;;;1.00;;
52494;SDS011;38405;53.212;5.660;2022-09-03T01:44:14;1.33;;;1.00;;
52494;SDS011;38405;53.212;5.660;2022-09-03T01:46:49;8.00;;;1.27;;
52494;SDS011;38405;53.212;5.660;2022-09-03T01:49:43;4.75;;;1.25;;
52494;SDS011;38405;53.212;5.660;2022-09-03T01:52:16;1.05;;;0.93;;
52494;SDS011;38405;53.212;5.660;2022-09-03T02:00:15;3.65;;;1.00;;
52494;SDS011;38405;53.212;5.660;2022-09-03T02:02:44;4.50;;;1.00;;
52494;SDS011;38405;53.212;5.660;2022-09-03T02:15:50;2.78;;;1.00;;
52494;SDS011;38405;53.212;5.660;2022-09-03T02:18:40;2.78;;;1.13;;
52494;SDS011;38405;53.212;5.660;2022-09-03T02:21:27;1.45;;;1.00;;
52494;SDS011;38405;53.212;5.660;2022-09-03T02:23:57;1.88;;;0.90;;
52494;SDS011;38405;53.212;5.660;2022-09-03T02:26:24;4.35;;;1.20;;
52494;SDS011;38405;53.212;5.660;2022-09-03T02:28:50;7.03;;;1.85;;
52494;SDS011;38405;53.212;5.660;2022-09-03T02:31:18;3.33;;;0.95;;
52494;SDS011;38405;53.212;5.660;2022-09-03T02:33:45;2.97;;;0.88;;
52494;SDS011;38405;53.212;5.660;2022-09-03T02:36:13;1.70;;;1.00;;
52494;SDS011;38405;53.212;5.660;2022-09-03T02:38:43;1.17;;;1.10;;
52494;SDS011;38405;53.212;5.660;2022-09-03T02:41:10;1.33;;;1.08;;
52494;SDS011;38405;53.212;5.660;2022-09-03T02:43:38;1.50;;;0.82;;
52494;SDS011;38405;53.212;5.660;2022-09-03T02:46:07;4.07;;;1.00;;
52494;SDS011;38405;53.212;5.660;2022-09-03T02:48:36;2.47;;;1.10;;
52494;SDS011;38405;53.212;5.660;2022-09-03T02:51:02;1.60;;;0.90;;
52494;SDS011;38405;53.212;5.660;2022-09-03T02:53:28;1.13;;;1.02;;
52494;SDS011;38405;53.212;5.660;2022-09-03T02:56:00;1.15;;;0.93;;
52494;SDS011;38405;53.212;5.660;2022-09-03T02:58:26;2.63;;;1.08;;
52494;SDS011;38405;53.212;5.660;2022-09-03T03:00:53;1.15;;;1.00;;
52494;SDS011;38405;53.212;5.660;2022-09-03T03:03:19;3.38;;;1.00;;
52494;SDS011;38405;53.212;5.660;2022-09-03T03:05:46;3.15;;;1.25;;
52494;SDS011;38405;53.212;5.660;2022-09-03T03:08:15;1.15;;;0.80;;
52494;SDS011;38405;53.212;5.660;2022-09-03T03:10:45;2.72;;;0.85;;
52494;SDS011;38405;53.212;5.660;2022-09-03T03:13:16;4.45;;;1.05;;
52494;SDS011;38405;53.212;5.660;2022-09-03T03:15:42;1.58;;;0.95;;
52494;SDS011;38405;53.212;5.660;2022-09-03T03:18:08;4.97;;;1.17;;
52494;SDS011;38405;53.212;5.660;2022-09-03T03:20:38;2.55;;;0.82;;
52494;SDS011;38405;53.212;5.660;2022-09-03T03:23:04;3.25;;;1.10;;
52494;SDS011;38405;53.212;5.660;2022-09-03T03:25:31;2.53;;;1.10;;
52494;SDS011;38405;53.212;5.660;2022-09-03T03:27:57;2.13;;;0.90;;
52494;SDS011;38405;53.212;5.660;2022-09-03T03:30:22;2.45;;;0.95;;
52494;SDS011;38405;53.212;5.660;2022-09-03T03:32:48;3.00;;;1.42;;
52494;SDS011;38405;53.212;5.660;2022-09-03T03:35:16;2.45;;;0.95;;
52494;SDS011;38405;53.212;5.660;2022-09-03T03:37:42;1.77;;;1.00;;
52494;SDS011;38405;53.212;5.660;2022-09-03T03:40:08;1.20;;;1.10;;
52494;SDS011;38405;53.212;5.660;2022-09-03T03:42:33;2.65;;;1.17;;
52494;SDS011;38405;53.212;5.660;2022-09-03T03:44:59;3.60;;;1.10;;
52494;SDS011;38405;53.212;5.660;2022-09-03T03:47:26;2.35;;;1.00;;
52494;SDS011;38405;53.212;5.660;2022-09-03T03:49:53;4.43;;;0.90;;
52494;SDS011;38405;53.212;5.660;2022-09-03T03:52:18;1.17;;;1.08;;
52494;SDS011;38405;53.212;5.660;2022-09-03T03:54:44;4.57;;;1.05;;
52494;SDS011;38405;53.212;5.660;2022-09-03T03:57:09;1.42;;;0.90;;
52494;SDS011;38405;53.212;5.660;2022-09-03T03:59:35;5.90;;;1.10;;
52494;SDS011;38405;53.212;5.660;2022-09-03T04:02:00;2.90;;;1.10;;
52494;SDS011;38405;53.212;5.660;2022-09-03T04:04:26;4.03;;;0.80;;
52494;SDS011;38405;53.212;5.660;2022-09-03T04:06:52;1.90;;;1.00;;
52494;SDS011;38405;53.212;5.660;2022-09-03T04:09:17;2.78;;;1.00;;
52494;SDS011;38405;53.212;5.660;2022-09-03T04:11:43;1.83;;;0.90;;
52494;SDS011;38405;53.212;5.660;2022-09-03T04:14:08;3.40;;;1.00;;
52494;SDS011;38405;53.212;5.660;2022-09-03T04:16:34;1.75;;;1.00;;
52494;SDS011;38405;53.212;5.660;2022-09-03T04:18:59;3.10;;;1.00;;
52494;SDS011;38405;53.212;5.660;2022-09-03T04:21:26;4.15;;;1.15;;
52494;SDS011;38405;53.212;5.660;2022-09-03T04:23:54;2.88;;;0.93;;
52494;SDS011;38405;53.212;5.660;2022-09-03T04:26:21;1.00;;;0.80;;
52494;SDS011;38405;53.212;5.660;2022-09-03T04:28:49;4.43;;;1.15;;
52494;SDS011;38405;53.212;5.660;2022-09-03T04:31:18;1.95;;;0.93;;
52494;SDS011;38405;53.212;5.660;2022-09-03T04:33:44;6.63;;;1.05;;
52494;SDS011;38405;53.212;5.660;2022-09-03T04:36:11;2.65;;;1.30;;
52494;SDS011;38405;53.212;5.660;2022-09-03T04:38:38;2.72;;;1.10;;
52494;SDS011;38405;53.212;5.660;2022-09-03T04:41:05;1.02;;;0.93;;
52494;SDS011;38405;53.212;5.660;2022-09-03T04:43:32;2.83;;;1.20;;
52494;SDS011;38405;53.212;5.660;2022-09-03T04:45:59;1.85;;;1.10;;
52494;SDS011;38405;53.212;5.660;2022-09-03T04:48:26;3.78;;;1.08;;
52494;SDS011;38405;53.212;5.660;2022-09-03T04:50:53;1.10;;;0.90;;
52494;SDS011;38405;53.212;5.660;2022-09-03T04:53:20;4.68;;;1.20;;
52494;SDS011;38405;53.212;5.660;2022-09-03T04:55:46;6.82;;;1.08;;
52494;SDS011;38405;53.212;5.660;2022-09-03T04:58:12;10.43;;;2.35;;
52494;SDS011;38405;53.212;5.660;2022-09-03T05:00:38;3.25;;;1.10;;
52494;SDS011;38405;53.212;5.660;2022-09-03T05:03:04;2.92;;;1.10;;
52494;SDS011;38405;53.212;5.660;2022-09-03T05:05:30;5.68;;;1.20;;
52494;SDS011;38405;53.212;5.660;2022-09-03T05:07:58;2.80;;;1.27;;
52494;SDS011;38405;53.212;5.660;2022-09-03T05:10:25;2.03;;;1.17;;
52494;SDS011;38405;53.212;5.660;2022-09-03T05:13:02;3.40;;;1.05;;
52494;SDS011;38405;53.212;5.660;2022-09-03T05:15:29;3.70;;;1.00;;
52494;SDS011;38405;53.212;5.660;2022-09-03T05:17:57;3.03;;;1.20;;
52494;SDS011;38405;53.212;5.660;2022-09-03T05:20:24;2.58;;;1.00;;
52494;SDS011;38405;53.212;5.660;2022-09-03T05:22:50;3.97;;;0.95;;
52494;SDS011;38405;53.212;5.660;2022-09-03T05:25:16;1.52;;;1.00;;
52494;SDS011;38405;53.212;5.660;2022-09-03T05:27:41;6.93;;;1.17;;
52494;SDS011;38405;53.212;5.660;2022-09-03T05:30:07;1.45;;;1.20;;
52494;SDS011;38405;53.212;5.660;2022-09-03T05:32:33;1.92;;;1.23;;
52494;SDS011;38405;53.212;5.660;2022-09-03T05:34:59;4.82;;;1.20;;
52494;SDS011;38405;53.212;5.660;2022-09-03T05:37:24;1.60;;;1.17;;
52494;SDS011;38405;53.212;5.660;2022-09-03T05:39:50;1.80;;;1.00;;
52494;SDS011;38405;53.212;5.660;2022-09-03T05:42:16;6.50;;;1.20;;
52494;SDS011;38405;53.212;5.660;2022-09-03T05:44:41;1.70;;;1.10;;
52494;SDS011;38405;53.212;5.660;2022-09-03T05:47:08;3.58;;;1.40;;
52494;SDS011;38405;53.212;5.660;2022-09-03T05:49:33;1.92;;;1.10;;
52494;SDS011;38405;53.212;5.660;2022-09-03T05:51:59;6.97;;;1.40;;
52494;SDS011;38405;53.212;5.660;2022-09-03T05:54:25;2.38;;;1.20;;
52494;SDS011;38405;53.212;5.660;2022-09-03T05:56:50;2.05;;;1.10;;
52494;SDS011;38405;53.212;5.660;2022-09-03T05:59:16;1.10;;;1.00;;
52494;SDS011;38405;53.212;5.660;2022-09-03T06:01:42;2.58;;;1.58;;
52494;SDS011;38405;53.212;5.660;2022-09-03T06:04:11;1.80;;;1.30;;
52494;SDS011;38405;53.212;5.660;2022-09-03T06:06:39;1.35;;;1.05;;
52494;SDS011;38405;53.212;5.660;2022-09-03T06:09:08;2.92;;;1.25;;
52494;SDS011;38405;53.212;5.660;2022-09-03T06:11:38;4.45;;;1.40;;
52494;SDS011;38405;53.212;5.660;2022-09-03T06:14:06;1.33;;;1.23;;
52494;SDS011;38405;53.212;5.660;2022-09-03T06:16:34;3.30;;;1.23;;
52494;SDS011;38405;53.212;5.660;2022-09-03T06:19:03;3.63;;;1.17;;
52494;SDS011;38405;53.212;5.660;2022-09-03T06:21:31;1.20;;;1.10;;
52494;SDS011;38405;53.212;5.660;2022-09-03T06:23:57;3.60;;;1.45;;
52494;SDS011;38405;53.212;5.660;2022-09-03T06:26:23;1.83;;;1.00;;
52494;SDS011;38405;53.212;5.660;2022-09-03T06:28:49;7.20;;;1.38;;
52494;SDS011;38405;53.212;5.660;2022-09-03T06:31:19;2.03;;;1.20;;
52494;SDS011;38405;53.212;5.660;2022-09-03T06:33:45;1.52;;;1.40;;
52494;SDS011;38405;53.212;5.660;2022-09-03T06:36:15;4.75;;;1.23;;
52494;SDS011;38405;53.212;5.660;2022-09-03T06:38:42;2.13;;;1.17;;
52494;SDS011;38405;53.212;5.660;2022-09-03T06:41:14;5.15;;;1.42;;
52494;SDS011;38405;53.212;5.660;2022-09-03T06:43:45;4.32;;;1.00;;
52494;SDS011;38405;53.212;5.660;2022-09-03T06:46:12;3.28;;;1.40;;
52494;SDS011;38405;53.212;5.660;2022-09-03T06:48:39;7.03;;;1.50;;
52494;SDS011;38405;53.212;5.660;2022-09-03T06:51:10;3.65;;;1.30;;
52494;SDS011;38405;53.212;5.660;2022-09-03T06:53:38;1.42;;;1.33;;
52494;SDS011;38405;53.212;5.660;2022-09-03T06:56:07;2.88;;;1.10;;
52494;SDS011;38405;53.212;5.660;2022-09-03T06:58:35;1.67;;;1.20;;
52494;SDS011;38405;53.212;5.660;2022-09-03T07:01:03;1.85;;;1.33;;
52494;SDS011;38405;53.212;5.660;2022-09-03T07:03:31;5.78;;;1.27;;
52494;SDS011;38405;53.212;5.660;2022-09-03T07:06:00;5.47;;;1.13;;
52494;SDS011;38405;53.212;5.660;2022-09-03T07:08:27;2.25;;;1.20;;
52494;SDS011;38405;53.212;5.660;2022-09-03T07:10:54;2.85;;;1.40;;
52494;SDS011;38405;53.212;5.660;2022-09-03T07:13:20;4.03;;;1.13;;
52494;SDS011;38405;53.212;5.660;2022-09-03T07:15:45;5.22;;;1.20;;
52494;SDS011;38405;53.212;5.660;2022-09-03T07:18:11;2.08;;;1.10;;
52494;SDS011;38405;53.212;5.660;2022-09-03T07:20:37;3.03;;;1.33;;
52494;SDS011;38405;53.212;5.660;2022-09-03T07:23:02;3.83;;;1.27;;
52494;SDS011;38405;53.212;5.660;2022-09-03T07:25:28;3.85;;;1.17;;
52494;SDS011;38405;53.212;5.660;2022-09-03T07:27:54;3.65;;;1.30;;
52494;SDS011;38405;53.212;5.660;2022-09-03T07:30:21;2.17;;;1.15;;
52494;SDS011;38405;53.212;5.660;2022-09-03T07:32:46;4.03;;;1.58;;
52494;SDS011;38405;53.212;5.660;2022-09-03T07:35:15;1.55;;;1.40;;
52494;SDS011;38405;53.212;5.660;2022-09-03T07:37:42;3.55;;;1.10;;
52494;SDS011;38405;53.212;5.660;2022-09-03T07:40:08;1.63;;;0.90;;
52494;SDS011;38405;53.212;5.660;2022-09-03T07:42:35;6.32;;;1.20;;
52494;SDS011;38405;53.212;5.660;2022-09-03T07:45:04;10.40;;;1.30;;
52494;SDS011;38405;53.212;5.660;2022-09-03T07:47:35;7.20;;;1.23;;
52494;SDS011;38405;53.212;5.660;2022-09-03T07:50:01;1.95;;;1.17;;
52494;SDS011;38405;53.212;5.660;2022-09-03T07:52:28;4.03;;;1.20;;
52494;SDS011;38405;53.212;5.660;2022-09-03T07:54:54;3.92;;;1.17;;
52494;SDS011;38405;53.212;5.660;2022-09-03T07:57:19;1.85;;;1.20;;
52494;SDS011;38405;53.212;5.660;2022-09-03T07:59:45;1.20;;;1.05;;
52494;SDS011;38405;53.212;5.660;2022-09-03T08:02:11;1.30;;;1.20;;
52494;SDS011;38405;53.212;5.660;2022-09-03T08:04:37;1.15;;;1.05;;
52494;SDS011;38405;53.212;5.660;2022-09-03T08:07:05;3.75;;;1.10;;
52494;SDS011;38405;53.212;5.660;2022-09-03T08:09:30;2.15;;;1.20;;
52494;SDS011;38405;53.212;5.660;2022-09-03T08:11:57;1.45;;;1.27;;
52494;SDS011;38405;53.212;5.660;2022-09-03T08:14:23;5.60;;;1.30;;
52494;SDS011;38405;53.212;5.660;2022-09-03T08:16:48;4.93;;;1.60;;
52494;SDS011;38405;53.212;5.660;2022-09-03T08:19:14;7.13;;;1.10;;
52494;SDS011;38405;53.212;5.660;2022-09-03T08:21:42;1.63;;;1.10;;
52494;SDS011;38405;53.212;5.660;2022-09-03T08:24:08;2.20;;;1.23;;
52494;SDS011;38405;53.212;5.660;2022-09-03T08:26:37;4.53;;;1.35;;
52494;SDS011;38405;53.212;5.660;2022-09-03T08:29:05;5.75;;;1.30;;
52494;SDS011;38405;53.212;5.660;2022-09-03T08:31:31;4.82;;;1.30;;
52494;SDS011;38405;53.212;5.660;2022-09-03T08:33:59;6.25;;;1.50;;
52494;SDS011;38405;53.212;5.660;2022-09-03T08:36:29;4.07;;;1.30;;
52494;SDS011;38405;53.212;5.660;2022-09-03T08:38:56;4.68;;;1.42;;
52494;SDS011;38405;53.212;5.660;2022-09-03T08:47:06;5.00;;;1.00;;
52494;SDS011;38405;53.212;5.660;2022-09-03T08:49:46;3.20;;;1.20;;
52494;SDS011;38405;53.212;5.660;2022-09-03T08:52:23;3.97;;;1.20;;
52494;SDS011;38405;53.212;5.660;2022-09-03T08:54:50;4.43;;;1.00;;
52494;SDS011;38405;53.212;5.660;2022-09-03T08:57:22;5.68;;;1.20;;
52494;SDS011;38405;53.212;5.660;2022-09-03T08:59:50;5.30;;;1.30;;
52494;SDS011;38405;53.212;5.660;2022-09-03T09:02:25;3.92;;;1.33;;
52494;SDS011;38405;53.212;5.660;2022-09-03T09:05:16;4.75;;;1.30;;
52494;SDS011;38405;53.212;5.660;2022-09-03T09:07:51;2.00;;;1.00;;
52494;SDS011;38405;53.212;5.660;2022-09-03T09:13:15;3.55;;;1.20;;
52494;SDS011;38405;53.212;5.660;2022-09-03T09:18:46;4.60;;;1.45;;
52494;SDS011;38405;53.212;5.660;2022-09-03T09:21:27;2.08;;;1.20;;
52494;SDS011;38405;53.212;5.660;2022-09-03T09:24:03;2.88;;;1.23;;
52494;SDS011;38405;53.212;5.660;2022-09-03T09:26:36;5.82;;;1.30;;
52494;SDS011;38405;53.212;5.660;2022-09-03T09:29:06;3.15;;;1.10;;
52494;SDS011;38405;53.212;5.660;2022-09-03T09:31:36;3.15;;;1.23;;
52494;SDS011;38405;53.212;5.660;2022-09-03T09:34:04;2.95;;;1.20;;
52494;SDS011;38405;53.212;5.660;2022-09-03T09:36:54;2.22;;;1.27;;
52494;SDS011;38405;53.212;5.660;2022-09-03T09:39:20;1.50;;;1.08;;
52494;SDS011;38405;53.212;5.660;2022-09-03T09:41:56;4.60;;;1.20;;
52494;SDS011;38405;53.212;5.660;2022-09-03T09:44:24;3.08;;;1.10;;
52494;SDS011;38405;53.212;5.660;2022-09-03T09:46:50;3.92;;;1.17;;
52494;SDS011;38405;53.212;5.660;2022-09-03T09:52:10;2.17;;;1.08;;
52494;SDS011;38405;53.212;5.660;2022-09-03T09:54:36;6.20;;;1.20;;
52494;SDS011;38405;53.212;5.660;2022-09-03T09:57:04;1.55;;;1.15;;
52494;SDS011;38405;53.212;5.660;2022-09-03T09:59:31;4.82;;;1.17;;
52494;SDS011;38405;53.212;5.660;2022-09-03T10:04:35;4.25;;;1.65;;
52494;SDS011;38405;53.212;5.660;2022-09-03T10:07:20;7.68;;;1.20;;
52494;SDS011;38405;53.212;5.660;2022-09-03T10:09:59;6.18;;;1.52;;
52494;SDS011;38405;53.212;5.660;2022-09-03T10:15:02;4.07;;;1.00;;
52494;SDS011;38405;53.212;5.660;2022-09-03T10:20:47;3.28;;;1.33;;
52494;SDS011;38405;53.212;5.660;2022-09-03T10:23:25;3.67;;;1.10;;
52494;SDS011;38405;53.212;5.660;2022-09-03T10:28:21;2.72;;;1.15;;
52494;SDS011;38405;53.212;5.660;2022-09-03T10:30:54;6.68;;;1.30;;
52494;SDS011;38405;53.212;5.660;2022-09-03T10:33:41;6.13;;;1.13;;
52494;SDS011;38405;53.212;5.660;2022-09-03T10:36:33;1.77;;;1.20;;
52494;SDS011;38405;53.212;5.660;2022-09-03T10:39:05;2.33;;;1.20;;
52494;SDS011;38405;53.212;5.660;2022-09-03T10:44:12;12.13;;;1.10;;
52494;SDS011;38405;53.212;5.660;2022-09-03T10:46:50;3.38;;;1.23;;
52494;SDS011;38405;53.212;5.660;2022-09-03T10:51:57;1.20;;;1.10;;
52494;SDS011;38405;53.212;5.660;2022-09-03T10:57:07;2.15;;;1.30;;
52494;SDS011;38405;53.212;5.660;2022-09-03T11:02:33;5.68;;;1.50;;
52494;SDS011;38405;53.212;5.660;2022-09-03T11:10:33;2.08;;;1.02;;
52494;SDS011;38405;53.212;5.660;2022-09-03T11:13:05;1.20;;;1.00;;
52494;SDS011;38405;53.212;5.660;2022-09-03T11:18:39;2.92;;;1.00;;
52494;SDS011;38405;53.212;5.660;2022-09-03T11:21:12;4.90;;;1.13;;
52494;SDS011;38405;53.212;5.660;2022-09-03T11:23:41;13.55;;;1.10;;
52494;SDS011;38405;53.212;5.660;2022-09-03T11:26:10;2.58;;;0.80;;
52494;SDS011;38405;53.212;5.660;2022-09-03T11:31:21;5.72;;;1.10;;
52494;SDS011;38405;53.212;5.660;2022-09-03T11:34:46;2.25;;;1.10;;
52494;SDS011;38405;53.212;5.660;2022-09-03T11:36:47;4.18;;;1.30;;
52494;SDS011;38405;53.212;5.660;2022-09-03T11:41:44;5.65;;;1.17;;
52494;SDS011;38405;53.212;5.660;2022-09-03T11:44:41;2.75;;;1.10;;
52494;SDS011;38405;53.212;5.660;2022-09-03T11:50:14;4.45;;;0.90;;
52494;SDS011;38405;53.212;5.660;2022-09-03T11:52:46;7.45;;;0.88;;
52494;SDS011;38405;53.212;5.660;2022-09-03T11:55:31;6.15;;;1.10;;
52494;SDS011;38405;53.212;5.660;2022-09-03T11:58:23;4.55;;;1.05;;
52494;SDS011;38405;53.212;5.660;2022-09-03T12:01:01;3.08;;;1.00;;
52494;SDS011;38405;53.212;5.660;2022-09-03T12:03:35;3.25;;;1.23;;
52494;SDS011;38405;53.212;5.660;2022-09-03T12:06:18;10.35;;;1.08;;
52494;SDS011;38405;53.212;5.660;2022-09-03T12:17:47;6.10;;;0.98;;
52494;SDS011;38405;53.212;5.660;2022-09-03T12:20:42;2.55;;;0.90;;
52494;SDS011;38405;53.212;5.660;2022-09-03T12:23:25;3.72;;;0.90;;
52494;SDS011;38405;53.212;5.660;2022-09-03T12:25:52;3.83;;;1.10;;
52494;SDS011;38405;53.212;5.660;2022-09-03T12:28:19;2.40;;;1.20;;
52494;SDS011;38405;53.212;5.660;2022-09-03T12:30:50;1.65;;;1.05;;
52494;SDS011;38405;53.212;5.660;2022-09-03T12:33:18;2.42;;;1.17;;
52494;SDS011;38405;53.212;5.660;2022-09-03T12:35:58;5.88;;;1.20;;
52494;SDS011;38405;53.212;5.660;2022-09-03T12:38:25;3.65;;;1.05;;
52494;SDS011;38405;53.212;5.660;2022-09-03T12:40:53;2.80;;;1.10;;
52494;SDS011;38405;53.212;5.660;2022-09-03T12:43:19;4.53;;;1.48;;
52494;SDS011;38405;53.212;5.660;2022-09-03T12:45:46;3.05;;;0.90;;
52494;SDS011;38405;53.212;5.660;2022-09-03T12:48:16;4.47;;;1.00;;
52494;SDS011;38405;53.212;5.660;2022-09-03T12:50:43;5.70;;;1.15;;
52494;SDS011;38405;53.212;5.660;2022-09-03T12:53:11;1.27;;;1.15;;
52494;SDS011;38405;53.212;5.660;2022-09-03T12:55:48;3.40;;;0.88;;
52494;SDS011;38405;53.212;5.660;2022-09-03T12:58:24;6.35;;;0.95;;
52494;SDS011;38405;53.212;5.660;2022-09-03T13:01:07;2.08;;;0.95;;
52494;SDS011;38405;53.212;5.660;2022-09-03T13:08:56;1.13;;;0.90;;
52494;SDS011;38405;53.212;5.660;2022-09-03T13:11:24;4.22;;;1.20;;
52494;SDS011;38405;53.212;5.660;2022-09-03T13:22:02;1.20;;;0.90;;
52494;SDS011;38405;53.212;5.660;2022-09-03T13:27:30;10.00;;;1.10;;
52494;SDS011;38405;53.212;5.660;2022-09-03T13:30:04;4.03;;;1.15;;
52494;SDS011;38405;53.212;5.660;2022-09-03T13:32:38;1.02;;;0.93;;
52494;SDS011;38405;53.212;5.660;2022-09-03T13:35:52;2.72;;;0.90;;
52494;SDS011;38405;53.212;5.660;2022-09-03T13:38:28;1.38;;;0.90;;
52494;SDS011;38405;53.212;5.660;2022-09-03T13:41:01;4.57;;;0.93;;
52494;SDS011;38405;53.212;5.660;2022-09-03T13:43:39;6.45;;;1.10;;
52494;SDS011;38405;53.212;5.660;2022-09-03T13:48:40;1.92;;;0.85;;
52494;SDS011;38405;53.212;5.660;2022-09-03T13:51:36;1.17;;;0.98;;
52494;SDS011;38405;53.212;5.660;2022-09-03T13:54:56;2.70;;;1.08;;
52494;SDS011;38405;53.212;5.660;2022-09-03T13:59:51;4.65;;;1.00;;
52494;SDS011;38405;53.212;5.660;2022-09-03T14:02:26;2.47;;;1.20;;
52494;SDS011;38405;53.212;5.660;2022-09-03T14:07:24;1.17;;;1.00;;
52494;SDS011;38405;53.212;5.660;2022-09-03T14:09:57;3.75;;;1.00;;
52494;SDS011;38405;53.212;5.660;2022-09-03T14:13:04;1.73;;;0.90;;
52494;SDS011;38405;53.212;5.660;2022-09-03T14:15:43;1.88;;;1.20;;
52494;SDS011;38405;53.212;5.660;2022-09-03T14:21:07;2.72;;;1.13;;
52494;SDS011;38405;53.212;5.660;2022-09-03T14:26:55;1.20;;;1.10;;
52494;SDS011;38405;53.212;5.660;2022-09-03T14:29:25;4.15;;;1.00;;
52494;SDS011;38405;53.212;5.660;2022-09-03T14:34:32;5.65;;;1.35;;
52494;SDS011;38405;53.212;5.660;2022-09-03T14:47:49;6.60;;;0.98;;
52494;SDS011;38405;53.212;5.660;2022-09-03T14:50:36;0.80;;;0.80;;
52494;SDS011;38405;53.212;5.660;2022-09-03T14:58:48;5.38;;;1.00;;
52494;SDS011;38405;53.212;5.660;2022-09-03T15:01:39;0.90;;;0.82;;
52494;SDS011;38405;53.212;5.660;2022-09-03T15:12:45;3.67;;;1.00;;
52494;SDS011;38405;53.212;5.660;2022-09-03T15:18:19;2.28;;;1.05;;
52494;SDS011;38405;53.212;5.660;2022-09-03T15:20:51;1.07;;;0.97;;
52494;SDS011;38405;53.212;5.660;2022-09-03T15:23:22;1.25;;;1.15;;
52494;SDS011;38405;53.212;5.660;2022-09-03T15:26:04;1.63;;;0.90;;
52494;SDS011;38405;53.212;5.660;2022-09-03T15:31:15;2.70;;;1.00;;
52494;SDS011;38405;53.212;5.660;2022-09-03T15:36:53;5.30;;;1.30;;
52494;SDS011;38405;53.212;5.660;2022-09-03T15:39:23;1.85;;;1.10;;
52494;SDS011;38405;53.212;5.660;2022-09-03T15:41:55;1.73;;;0.80;;
52494;SDS011;38405;53.212;5.660;2022-09-03T15:44:59;5.78;;;1.10;;
52494;SDS011;38405;53.212;5.660;2022-09-03T15:47:35;5.50;;;1.10;;
52494;SDS011;38405;53.212;5.660;2022-09-03T15:55:43;1.00;;;0.90;;
52494;SDS011;38405;53.212;5.660;2022-09-03T15:58:26;4.38;;;0.95;;
52494;SDS011;38405;53.212;5.660;2022-09-03T16:01:00;3.67;;;1.20;;
52494;SDS011;38405;53.212;5.660;2022-09-03T16:09:30;3.35;;;1.10;;
52494;SDS011;38405;53.212;5.660;2022-09-03T16:14:59;8.52;;;1.50;;
52494;SDS011;38405;53.212;5.660;2022-09-03T16:17:42;7.05;;;1.50;;
52494;SDS011;38405;53.212;5.660;2022-09-03T16:25:56;4.85;;;1.10;;
52494;SDS011;38405;53.212;5.660;2022-09-03T16:42:43;7.18;;;1.10;;
52494;SDS011;38405;53.212;5.660;2022-09-03T16:56:18;1.67;;;0.90;;
52494;SDS011;38405;53.212;5.660;2022-09-03T16:59:01;3.72;;;1.00;;
52494;SDS011;38405;53.212;5.660;2022-09-03T17:01:49;1.45;;;0.90;;
52494;SDS011;38405;53.212;5.660;2022-09-03T17:07:33;3.97;;;1.00;;
52494;SDS011;38405;53.212;5.660;2022-09-03T17:09:47;1.17;;;1.00;;
52494;SDS011;38405;53.212;5.660;2022-09-03T17:12:33;1.23;;;1.08;;
52494;SDS011;38405;53.212;5.660;2022-09-03T17:35:29;9.07;;;1.00;;
52494;SDS011;38405;53.212;5.660;2022-09-03T17:38:29;5.10;;;1.00;;
52494;SDS011;38405;53.212;5.660;2022-09-03T17:44:03;3.28;;;1.08;;
52494;SDS011;38405;53.212;5.660;2022-09-03T17:49:30;1.60;;;1.30;;
52494;SDS011;38405;53.212;5.660;2022-09-03T17:52:07;1.60;;;1.17;;
52494;SDS011;38405;53.212;5.660;2022-09-03T17:54:44;2.92;;;1.02;;
52494;SDS011;38405;53.212;5.660;2022-09-03T17:57:17;3.70;;;1.30;;
52494;SDS011;38405;53.212;5.660;2022-09-03T17:59:58;3.72;;;1.30;;
52494;SDS011;38405;53.212;5.660;2022-09-03T18:07:59;2.58;;;1.60;;
52494;SDS011;38405;53.212;5.660;2022-09-03T18:13:34;2.83;;;1.75;;
52494;SDS011;38405;53.212;5.660;2022-09-03T18:16:26;4.03;;;1.63;;
52494;SDS011;38405;53.212;5.660;2022-09-03T18:21:43;2.40;;;1.40;;
52494;SDS011;38405;53.212;5.660;2022-09-03T18:24:31;3.20;;;1.30;;
52494;SDS011;38405;53.212;5.660;2022-09-03T18:30:15;2.67;;;1.60;;
52494;SDS011;38405;53.212;5.660;2022-09-03T18:32:59;1.90;;;1.80;;
52494;SDS011;38405;53.212;5.660;2022-09-03T18:35:44;2.75;;;2.05;;
52494;SDS011;38405;53.212;5.660;2022-09-03T18:38:30;2.75;;;1.45;;
52494;SDS011;38405;53.212;5.660;2022-09-03T18:56:25;6.03;;;1.67;;
52494;SDS011;38405;53.212;5.660;2022-09-03T19:02:32;4.57;;;1.70;;
52494;SDS011;38405;53.212;5.660;2022-09-03T19:05:41;6.20;;;1.95;;
52494;SDS011;38405;53.212;5.660;2022-09-03T19:09:33;3.25;;;1.75;;
52494;SDS011;38405;53.212;5.660;2022-09-03T19:14:53;12.48;;;2.30;;
52494;SDS011;38405;53.212;5.660;2022-09-03T19:24:03;2.67;;;1.60;;
52494;SDS011;38405;53.212;5.660;2022-09-03T19:32:57;5.45;;;2.17;;
52494;SDS011;38405;53.212;5.660;2022-09-03T19:36:14;5.07;;;1.80;;
52494;SDS011;38405;53.212;5.660;2022-09-03T19:42:09;3.00;;;2.55;;
52494;SDS011;38405;53.212;5.660;2022-09-03T19:46:01;4.43;;;2.70;;
52494;SDS011;38405;53.212;5.660;2022-09-03T19:51:44;3.00;;;2.13;;
52494;SDS011;38405;53.212;5.660;2022-09-03T19:54:41;4.65;;;2.47;;
52494;SDS011;38405;53.212;5.660;2022-09-03T19:57:25;4.43;;;2.42;;
52494;SDS011;38405;53.212;5.660;2022-09-03T20:00:12;3.53;;;2.10;;
52494;SDS011;38405;53.212;5.660;2022-09-03T20:02:56;5.22;;;2.30;;
52494;SDS011;38405;53.212;5.660;2022-09-03T20:05:42;3.13;;;2.10;;
52494;SDS011;38405;53.212;5.660;2022-09-03T20:08:27;2.72;;;2.08;;
52494;SDS011;38405;53.212;5.660;2022-09-03T20:11:17;5.45;;;2.10;;
52494;SDS011;38405;53.212;5.660;2022-09-03T20:13:45;4.00;;;2.80;;
52494;SDS011;38405;53.212;5.660;2022-09-03T20:21:49;5.93;;;2.63;;
52494;SDS011;38405;53.212;5.660;2022-09-03T20:24:31;5.35;;;2.30;;
52494;SDS011;38405;53.212;5.660;2022-09-03T20:32:31;5.88;;;2.00;;
52494;SDS011;38405;53.212;5.660;2022-09-03T20:40:23;5.85;;;2.13;;
52494;SDS011;38405;53.212;5.660;2022-09-03T20:43:48;5.10;;;2.33;;
52494;SDS011;38405;53.212;5.660;2022-09-03T20:54:17;5.85;;;2.00;;
52494;SDS011;38405;53.212;5.660;2022-09-03T20:59:28;3.63;;;2.05;;
52494;SDS011;38405;53.212;5.660;2022-09-03T21:07:52;3.13;;;1.95;;
52494;SDS011;38405;53.212;5.660;2022-09-03T21:10:23;5.32;;;2.20;;
52494;SDS011;38405;53.212;5.660;2022-09-03T21:21:01;5.20;;;2.00;;